Time;durP1;ratioP1;P1;durP2;ratioP2;P2;SDS_P1;SDS_P2;PMS_P1;PMS_P2;Temp;Humidity;BMP_temperature;BMP_pressure;BME280_temperature;BME280_humidity;BME280_pressure;Samples;Min_cycle;Max_cycle;Signal;HPM_P1;HPM_P2
2023/09/03 05:38:01;;;;;;;7.72;7.03;;;;;;;;;;6333925;22;19914;-77
2023/09/03 05:40:27;;;;;;;7.80;7.00;;;;;;;;;;6337751;22;20011;-77
2023/09/03 05:42:52;;;;;;;7.90;7.13;;;;;;;;;;6327612;22;20010;-77
2023/09/03 05:45:18;;;;;;;8.93;7.32;;;;;;;;;;6307853;22;20011;-78
2023/09/03 05:47:43;;;;;;;8.13;7.07;;;;;;;;;;6308993;22;20053;-77
2023/09/03 05:50:09;;;;;;;7.07;6.25;;;;;;;;;;6310023;22;20045;-78
2023/09/03 05:52:34;;;;;;;6.93;6.30;;;;;;;;;;6310023;22;20015;-79
2023/09/03 05:55:00;;;;;;;8.25;6.78;;;;;;;;;;6309717;22;20052;-78
2023/09/03 05:57:25;;;;;;;7.63;6.45;;;;;;;;;;6309807;22;19999;-78
2023/09/03 05:59:51;;;;;;;7.40;6.70;;;;;;;;;;6309930;22;20010;-84
2023/09/03 06:02:17;;;;;;;7.32;6.45;;;;;;;;;;6309672;22;20017;-77
2023/09/03 06:04:43;;;;;;;7.50;6.68;;;;;;;;;;6309999;22;20074;-80
2023/09/03 06:07:09;;;;;;;7.50;6.18;;;;;;;;;;6309946;22;19995;-78
2023/09/03 06:09:36;;;;;;;7.30;6.60;;;;;;;;;;6309773;22;20085;-80
2023/09/03 06:12:01;;;;;;;6.60;5.90;;;;;;;;;;6309722;22;20027;-79
2023/09/03 06:14:27;;;;;;;7.38;5.65;;;;;;;;;;6309920;22;19995;-78
2023/09/03 06:16:54;;;;;;;6.57;5.97;;;;;;;;;;6309842;22;20003;-78
2023/09/03 07:44:53;;;;;;;9.30;5.82;;;;;;;;;;6319318;22;20051;-78
2023/09/03 07:47:18;;;;;;;6.25;5.55;;;;;;;;;;6339765;22;20014;-79
2023/09/03 07:49:44;;;;;;;7.78;5.80;;;;;;;;;;6340142;22;20078;-77
2023/09/03 07:52:11;;;;;;;6.05;5.45;;;;;;;;;;6326273;22;20320;-77
2023/09/03 07:54:37;;;;;;;5.95;5.35;;;;;;;;;;6308847;22;20009;-76
2023/09/03 07:57:02;;;;;;;6.03;5.50;;;;;;;;;;6308785;22;20082;-76
2023/09/03 07:59:28;;;;;;;6.15;5.40;;;;;;;;;;6308887;22;19999;-77
2023/09/03 08:01:53;;;;;;;6.38;5.25;;;;;;;;;;6309089;22;20357;-76
2023/09/03 08:04:19;;;;;;;6.45;5.15;;;;;;;;;;6308643;22;20432;-75
2023/09/03 08:06:44;;;;;;;5.47;4.97;;;;;;;;;;6309031;22;20411;-76
2023/09/03 08:09:10;;;;;;;6.10;5.28;;;;;;;;;;6308381;22;20481;-77
2023/09/03 08:11:36;;;;;;;5.20;4.70;;;;;;;;;;6308611;22;20003;-76
2023/09/03 08:14:02;;;;;;;5.50;5.00;;;;;;;;;;6308661;22;20003;-75
2023/09/03 08:16:28;;;;;;;5.90;5.30;;;;;;;;;;6308960;22;20422;-76
2023/09/03 08:18:53;;;;;;;5.45;4.95;;;;;;;;;;6307113;22;20007;-76
2023/09/03 08:21:18;;;;;;;5.30;4.80;;;;;;;;;;6308647;22;20004;-76
2023/09/03 08:23:44;;;;;;;5.63;4.95;;;;;;;;;;6308571;22;20094;-75
2023/09/03 08:26:09;;;;;;;10.02;5.70;;;;;;;;;;6308475;22;20007;-76
2023/09/03 08:28:35;;;;;;;6.05;5.40;;;;;;;;;;6309044;22;20415;-78
2023/09/03 08:31:00;;;;;;;5.43;4.53;;;;;;;;;;6308604;22;20437;-76
2023/09/03 08:33:26;;;;;;;5.22;4.60;;;;;;;;;;6308511;22;20313;-76
2023/09/03 08:35:51;;;;;;;5.53;5.03;;;;;;;;;;6308742;22;20003;-77
2023/09/03 08:38:17;;;;;;;5.80;4.75;;;;;;;;;;6308564;22;20062;-77
2023/09/03 08:40:43;;;;;;;5.25;4.78;;;;;;;;;;6308166;22;20000;-76
2023/09/03 08:43:12;;;;;;;6.75;4.70;;;;;;;;;;6308140;22;20502;-77
2023/09/03 08:45:42;;;;;;;5.40;4.90;;;;;;;;;;6308353;22;20445;-77
2023/09/03 08:48:08;;;;;;;6.07;5.47;;;;;;;;;;6308137;22;20003;-77
2023/09/03 08:50:34;;;;;;;6.00;5.13;;;;;;;;;;6308438;22;20029;-75
2023/09/03 08:53:01;;;;;;;5.80;5.18;;;;;;;;;;6308381;22;20003;-76
2023/09/03 08:55:29;;;;;;;6.88;5.15;;;;;;;;;;6308389;22;19999;-75
2023/09/03 08:57:55;;;;;;;5.75;5.13;;;;;;;;;;6308105;22;20074;-76
2023/09/03 09:00:21;;;;;;;6.18;4.88;;;;;;;;;;6308574;22;20031;-77
2023/09/03 09:02:48;;;;;;;5.30;4.85;;;;;;;;;;6308166;22;20365;-77
2023/09/03 09:05:15;;;;;;;7.38;5.32;;;;;;;;;;6306772;22;20077;-77
2023/09/03 09:07:41;;;;;;;5.38;4.88;;;;;;;;;;6308138;22;20326;-77
2023/09/03 09:10:09;;;;;;;7.50;4.88;;;;;;;;;;6308172;22;20014;-77
2023/09/03 09:12:41;;;;;;;11.93;4.97;;;;;;;;;;6308363;22;20075;-77
2023/09/03 09:15:07;;;;;;;5.80;5.30;;;;;;;;;;6308193;22;20003;-77
2023/09/03 09:17:40;;;;;;;6.20;5.00;;;;;;;;;;6308340;22;20373;-77
2023/09/03 09:20:07;;;;;;;5.30;4.80;;;;;;;;;;6281627;22;20010;-77
2023/09/03 09:22:41;;;;;;;5.47;4.97;;;;;;;;;;6307883;22;20003;-78
2023/09/03 09:25:07;;;;;;;5.55;5.03;;;;;;;;;;6308108;22;20057;-76
2023/09/03 09:27:36;;;;;;;5.88;5.38;;;;;;;;;;6308138;22;20493;-76
2023/09/03 09:30:08;;;;;;;;;;;;;;;;;;6308988;22;20026;-76
2023/09/03 09:32:34;;;;;;;5.65;4.65;;;;;;;;;;6308173;22;19934;-76
2023/09/03 09:34:59;;;;;;;5.32;4.78;;;;;;;;;;6307830;22;20414;-76
2023/09/03 09:37:25;;;;;;;7.13;4.50;;;;;;;;;;6308004;22;20433;-76
2023/09/03 09:39:50;;;;;;;5.72;4.53;;;;;;;;;;6308162;22;20000;-76
2023/09/03 09:42:18;;;;;;;5.57;4.30;;;;;;;;;;6307835;22;20003;-76
2023/09/03 09:44:53;;;;;;;5.57;4.82;;;;;;;;;;6308131;22;20000;-77
2023/09/03 09:47:20;;;;;;;6.32;4.63;;;;;;;;;;6307637;22;20014;-77
2023/09/03 09:49:46;;;;;;;6.45;4.80;;;;;;;;;;6307972;22;20078;-77
2023/09/03 09:52:15;;;;;;;4.95;4.45;;;;;;;;;;6308112;22;19999;-77
2023/09/03 09:54:46;;;;;;;5.35;4.85;;;;;;;;;;6307976;22;20006;-77
2023/09/03 09:57:22;;;;;;;5.72;5.15;;;;;;;;;;6308156;22;20002;-77
2023/09/03 09:59:56;;;;;;;5.03;4.53;;;;;;;;;;6307794;22;20034;-79
2023/09/03 10:02:22;;;;;;;5.68;4.60;;;;;;;;;;6307673;22;20003;-78
2023/09/03 10:04:52;;;;;;;6.93;4.65;;;;;;;;;;6308133;22;20007;-77
2023/09/03 10:07:17;;;;;;;4.95;4.55;;;;;;;;;;6307875;22;20086;-76
2023/09/03 10:09:44;;;;;;;5.20;4.70;;;;;;;;;;6307925;22;20000;-78
2023/09/03 10:12:10;;;;;;;6.10;5.50;;;;;;;;;;6307689;22;20060;-77
2023/09/03 10:14:36;;;;;;;5.85;4.75;;;;;;;;;;6307826;22;20043;-76
2023/09/03 10:17:06;;;;;;;8.63;4.72;;;;;;;;;;6308058;22;20042;-76
2023/09/03 10:19:56;;;;;;;4.55;3.90;;;;;;;;;;6307903;22;20071;-76
2023/09/03 10:22:23;;;;;;;5.72;4.10;;;;;;;;;;6307568;22;20011;-76
2023/09/03 10:25:06;;;;;;;7.60;4.18;;;;;;;;;;6307519;22;20000;-76
2023/09/03 10:27:35;;;;;;;4.78;4.38;;;;;;;;;;6308206;22;19999;-77
2023/09/03 10:30:03;;;;;;;;;;;;;;;;;;6308217;22;19999;-78
2023/09/03 10:32:29;;;;;;;5.18;4.68;;;;;;;;;;6308051;22;19953;-77
2023/09/03 10:34:56;;;;;;;6.50;4.63;;;;;;;;;;6309581;22;20480;-78
2023/09/03 10:37:35;;;;;;;6.45;4.68;;;;;;;;;;6281790;22;20086;-78
2023/09/03 10:40:22;;;;;;;5.78;4.50;;;;;;;;;;6309319;22;20079;-78
2023/09/03 10:42:48;;;;;;;5.63;4.15;;;;;;;;;;6309620;22;20334;-78
2023/09/03 10:45:15;;;;;;;4.75;4.35;;;;;;;;;;6308903;22;20090;-77
2023/09/03 10:47:56;;;;;;;6.70;4.47;;;;;;;;;;6309308;22;20047;-77
2023/09/03 10:50:43;;;;;;;5.25;4.75;;;;;;;;;;6309309;22;20050;-77
2023/09/03 10:53:29;;;;;;;5.20;4.70;;;;;;;;;;6309490;22;20061;-77
2023/09/03 10:56:10;;;;;;;5.53;4.22;;;;;;;;;;6309194;22;20095;-77
2023/09/03 10:58:58;;;;;;;5.30;4.50;;;;;;;;;;6309379;22;20025;-77
2023/09/03 11:01:32;;;;;;;4.75;4.30;;;;;;;;;;6309212;22;20307;-78
2023/09/03 11:04:02;;;;;;;6.28;4.50;;;;;;;;;;6309230;22;20031;-78
2023/09/03 11:06:32;;;;;;;4.97;4.53;;;;;;;;;;6309281;22;19999;-78
2023/09/03 11:09:01;;;;;;;6.85;4.90;;;;;;;;;;6282342;22;20094;-76
2023/09/03 11:11:31;;;;;;;6.38;4.70;;;;;;;;;;6309228;22;20010;-77
2023/09/03 11:13:57;;;;;;;5.13;4.60;;;;;;;;;;6309187;22;20003;-77
2023/09/03 11:16:34;;;;;;;4.55;4.15;;;;;;;;;;6309305;22;20078;-77
2023/09/03 11:19:00;;;;;;;5.03;4.50;;;;;;;;;;6309249;22;20003;-78
2023/09/03 11:21:26;;;;;;;5.38;4.55;;;;;;;;;;6309014;22;20010;-77
2023/09/03 11:24:20;;;;;;;4.22;3.83;;;;;;;;;;6309205;22;20026;-77
2023/09/03 11:26:46;;;;;;;4.80;4.00;;;;;;;;;;6309238;22;20003;-77
2023/09/03 11:29:22;;;;;;;4.35;3.70;;;;;;;;;;6309163;22;20418;-78
2023/09/03 11:31:49;;;;;;;5.05;4.65;;;;;;;;;;6308822;22;20010;-77
2023/09/03 11:34:19;;;;;;;4.40;4.10;;;;;;;;;;6309144;22;20000;-78
2023/09/03 11:36:48;;;;;;;4.70;4.30;;;;;;;;;;6309268;22;20027;-78
2023/09/03 11:39:17;;;;;;;4.55;4.05;;;;;;;;;;6308991;22;20095;-77
2023/09/03 11:41:43;;;;;;;5.15;4.65;;;;;;;;;;6309245;22;20003;-78
2023/09/03 11:44:22;;;;;;;5.03;4.53;;;;;;;;;;6281501;22;20007;-78
2023/09/03 11:47:01;;;;;;;;;;;;;;;;;;6309354;22;20015;-76
2023/09/03 11:49:26;;;;;;;5.43;4.35;;;;;;;;;;6309067;22;19985;-78
2023/09/03 11:51:53;;;;;;;4.80;4.40;;;;;;;;;;6308876;22;20307;-77
2023/09/03 11:54:26;;;;;;;7.03;4.80;;;;;;;;;;6308766;22;20027;-77
2023/09/03 11:56:59;;;;;;;4.95;4.55;;;;;;;;;;6309053;22;20322;-77
2023/09/03 11:59:24;;;;;;;5.65;5.13;;;;;;;;;;6308668;22;20082;-76
2023/09/03 12:01:53;;;;;;;6.38;4.60;;;;;;;;;;6308602;22;20379;-77
2023/09/03 12:04:19;;;;;;;5.20;4.70;;;;;;;;;;6308993;22;20003;-77
2023/09/03 12:06:44;;;;;;;5.18;4.68;;;;;;;;;;6309300;22;20003;-77
2023/09/03 12:09:10;;;;;;;5.45;4.93;;;;;;;;;;6308548;22;20320;-78
2023/09/03 12:11:35;;;;;;;5.22;4.82;;;;;;;;;;6308370;22;20007;-78
2023/09/03 12:14:01;;;;;;;5.43;4.65;;;;;;;;;;6308933;22;19999;-78
2023/09/03 12:16:28;;;;;;;5.30;4.90;;;;;;;;;;6308570;22;19999;-77
2023/09/03 12:18:58;;;;;;;5.78;5.28;;;;;;;;;;6308709;22;20011;-76
2023/09/03 12:21:37;;;;;;;5.15;4.65;;;;;;;;;;6308098;22;20422;-76
2023/09/03 12:24:05;;;;;;;5.35;4.65;;;;;;;;;;6308344;22;20010;-77
2023/09/03 12:26:32;;;;;;;5.10;4.60;;;;;;;;;;6308739;22;20314;-76
2023/09/03 12:28:59;;;;;;;5.32;4.82;;;;;;;;;;6308449;22;20010;-77
2023/09/03 12:31:41;;;;;;;5.30;4.90;;;;;;;;;;6308609;22;20007;-75
2023/09/03 12:34:08;;;;;;;5.35;4.85;;;;;;;;;;6308482;22;20005;-75
2023/09/03 12:36:33;;;;;;;5.43;4.93;;;;;;;;;;6308777;22;20007;-75
2023/09/03 12:39:02;;;;;;;5.22;4.72;;;;;;;;;;6308446;22;20315;-75
2023/09/03 12:41:31;;;;;;;8.07;4.78;;;;;;;;;;6308353;22;20014;-75
2023/09/03 12:44:04;;;;;;;5.10;4.63;;;;;;;;;;6308683;22;20003;-79
2023/09/03 12:46:29;;;;;;;5.32;4.70;;;;;;;;;;6308386;22;20022;-78
2023/09/03 12:48:55;;;;;;;5.22;4.63;;;;;;;;;;6308624;22;20007;-77
2023/09/03 12:51:21;;;;;;;5.65;4.70;;;;;;;;;;6308737;22;20371;-78
2023/09/03 12:53:47;;;;;;;5.55;4.93;;;;;;;;;;6308301;22;20003;-78
2023/09/03 12:56:13;;;;;;;5.65;4.65;;;;;;;;;;6308151;22;20027;-78
2023/09/03 12:58:39;;;;;;;5.20;4.80;;;;;;;;;;6308290;22;20006;-79
2023/09/03 13:01:07;;;;;;;5.57;4.47;;;;;;;;;;6308033;22;20074;-77
2023/09/03 13:03:32;;;;;;;5.25;3.90;;;;;;;;;;6308147;22;20003;-79
2023/09/03 13:05:58;;;;;;;6.78;4.82;;;;;;;;;;6308311;22;20303;-78
2023/09/03 13:08:24;;;;;;;6.50;4.78;;;;;;;;;;6308621;22;20433;-77
2023/09/03 13:10:50;;;;;;;5.38;4.22;;;;;;;;;;6308095;22;20437;-79
2023/09/03 13:13:15;;;;;;;5.13;4.63;;;;;;;;;;6308316;22;20027;-78
2023/09/03 13:15:41;;;;;;;6.20;4.65;;;;;;;;;;6308295;22;20073;-78
2023/09/03 13:18:07;;;;;;;5.35;4.82;;;;;;;;;;6308105;22;19999;-81
2023/09/03 13:20:35;;;;;;;4.90;4.40;;;;;;;;;;6308022;22;19999;-78
2023/09/03 13:23:01;;;;;;;7.38;4.38;;;;;;;;;;6308207;22;19999;-78
2023/09/03 13:25:27;;;;;;;6.15;4.25;;;;;;;;;;6308103;22;20010;-81
2023/09/03 13:27:52;;;;;;;5.32;4.82;;;;;;;;;;6307947;22;20003;-80
2023/09/03 13:30:18;;;;;;;5.07;4.50;;;;;;;;;;6308118;22;20420;-77
2023/09/03 13:32:43;;;;;;;4.57;4.18;;;;;;;;;;6307952;22;20331;-78
2023/09/03 13:35:09;;;;;;;7.40;4.63;;;;;;;;;;6308706;22;20011;-81
2023/09/03 13:37:36;;;;;;;4.78;4.28;;;;;;;;;;6307868;22;20429;-78
2023/09/03 13:40:04;;;;;;;5.25;4.43;;;;;;;;;;6308112;22;20434;-79
2023/09/03 13:42:29;;;;;;;5.07;4.53;;;;;;;;;;6307776;22;20007;-78
2023/09/03 13:44:55;;;;;;;7.18;4.28;;;;;;;;;;6307905;22;20014;-78
2023/09/03 13:47:20;;;;;;;4.45;3.95;;;;;;;;;;6307537;22;20011;-81
2023/09/03 13:49:46;;;;;;;4.97;4.47;;;;;;;;;;6308233;22;20007;-78
2023/09/03 13:52:11;;;;;;;5.53;4.78;;;;;;;;;;6306981;22;20007;-78
2023/09/03 13:54:37;;;;;;;4.78;4.20;;;;;;;;;;6307909;22;20007;-78
2023/09/03 13:57:03;;;;;;;6.82;5.05;;;;;;;;;;6307520;22;19999;-77
2023/09/03 13:59:29;;;;;;;7.40;4.82;;;;;;;;;;6307648;22;20006;-77
2023/09/03 14:01:54;;;;;;;5.40;4.65;;;;;;;;;;6307326;22;20070;-77
2023/09/03 14:04:19;;;;;;;6.90;6.30;;;;;;;;;;6307478;22;20319;-77
2023/09/03 14:06:45;;;;;;;7.82;5.50;;;;;;;;;;6307689;22;20004;-77
2023/09/03 14:09:11;;;;;;;4.97;4.55;;;;;;;;;;6309438;22;19999;-78
2023/09/03 14:11:38;;;;;;;7.10;5.35;;;;;;;;;;6309833;22;20011;-77
2023/09/03 14:14:06;;;;;;;5.32;4.93;;;;;;;;;;6309694;22;20025;-78
2023/09/03 14:16:32;;;;;;;5.50;5.00;;;;;;;;;;6309613;22;20422;-77
2023/09/03 14:18:57;;;;;;;6.70;4.95;;;;;;;;;;6310053;22;20000;-78
2023/09/03 14:21:23;;;;;;;5.55;4.97;;;;;;;;;;6309528;22;20007;-78
2023/09/03 14:23:49;;;;;;;5.82;5.30;;;;;;;;;;6307770;22;20003;-78
2023/09/03 14:26:15;;;;;;;5.45;4.90;;;;;;;;;;6309775;22;20010;-77
2023/09/03 14:28:41;;;;;;;6.32;5.20;;;;;;;;;;6309607;22;20008;-77
2023/09/03 14:31:07;;;;;;;6.63;5.88;;;;;;;;;;6309286;22;20027;-77
2023/09/03 14:33:33;;;;;;;7.68;5.65;;;;;;;;;;6309667;22;19999;-77
2023/09/03 14:35:58;;;;;;;5.88;5.00;;;;;;;;;;6309372;22;20007;-78
2023/09/03 14:38:24;;;;;;;6.25;5.47;;;;;;;;;;6309711;22;20034;-77
2023/09/03 14:40:50;;;;;;;7.63;5.25;;;;;;;;;;6309412;22;20004;-78
2023/09/03 14:43:15;;;;;;;7.28;5.45;;;;;;;;;;6282312;22;20006;-78
2023/09/03 14:45:41;;;;;;;6.32;5.22;;;;;;;;;;6308952;22;20011;-78
2023/09/03 14:48:06;;;;;;;9.30;5.50;;;;;;;;;;6309682;22;20003;-78
2023/09/03 14:50:32;;;;;;;6.97;5.70;;;;;;;;;;6309170;22;19999;-77
2023/09/03 14:52:57;;;;;;;6.43;5.70;;;;;;;;;;6309647;22;20015;-78
2023/09/03 14:55:23;;;;;;;7.00;5.50;;;;;;;;;;6309463;22;20009;-77
2023/09/03 14:57:48;;;;;;;6.85;5.25;;;;;;;;;;6309399;22;20010;-78
2023/09/03 15:00:14;;;;;;;6.25;5.65;;;;;;;;;;6309184;22;20426;-78
2023/09/03 15:02:40;;;;;;;5.78;5.20;;;;;;;;;;6309010;22;20053;-78
2023/09/03 15:05:05;;;;;;;6.35;5.75;;;;;;;;;;6281866;22;20335;-77
2023/09/03 15:07:31;;;;;;;6.45;5.30;;;;;;;;;;6309124;22;20019;-78
2023/09/03 15:09:59;;;;;;;7.18;4.82;;;;;;;;;;6309068;22;20007;-78
2023/09/03 15:12:24;;;;;;;6.47;5.10;;;;;;;;;;6309244;22;19999;-78
2023/09/03 15:14:50;;;;;;;6.68;5.75;;;;;;;;;;6308769;22;20002;-78
2023/09/03 15:17:15;;;;;;;5.93;5.32;;;;;;;;;;6309164;22;20057;-78
2023/09/03 15:19:41;;;;;;;6.15;5.30;;;;;;;;;;6308780;22;19999;-78
2023/09/03 15:22:06;;;;;;;6.90;5.55;;;;;;;;;;6308905;22;20007;-77
2023/09/03 15:24:32;;;;;;;7.13;4.93;;;;;;;;;;6309086;22;20379;-77
2023/09/03 15:26:57;;;;;;;7.20;5.60;;;;;;;;;;6308981;22;20007;-78
2023/09/03 15:29:22;;;;;;;5.55;5.05;;;;;;;;;;6281551;22;20014;-81
2023/09/03 15:31:48;;;;;;;7.68;5.40;;;;;;;;;;6308723;22;20004;-78
2023/09/03 15:34:14;;;;;;;6.40;5.75;;;;;;;;;;6309389;22;20007;-81
2023/09/03 15:36:39;;;;;;;5.90;5.35;;;;;;;;;;6309538;22;20003;-80
2023/09/03 15:39:05;;;;;;;6.25;5.65;;;;;;;;;;6309347;22;20003;-78
2023/09/03 15:41:30;;;;;;;6.22;5.05;;;;;;;;;;6308911;22;20007;-78
2023/09/03 15:43:59;;;;;;;5.75;5.05;;;;;;;;;;6308647;22;20022;-79
2023/09/03 15:46:24;;;;;;;6.63;5.15;;;;;;;;;;6308776;22;20446;-78
2023/09/03 15:48:50;;;;;;;7.25;5.18;;;;;;;;;;6309086;22;20003;-78
2023/09/03 15:51:15;;;;;;;5.95;5.20;;;;;;;;;;6308658;22;20415;-77
2023/09/03 15:53:42;;;;;;;6.22;5.30;;;;;;;;;;6308527;22;20078;-80
2023/09/03 15:56:08;;;;;;;6.63;5.07;;;;;;;;;;6308968;22;20014;-79
2023/09/03 15:58:34;;;;;;;5.60;5.10;;;;;;;;;;6308681;22;20331;-79
2023/09/03 16:01:05;;;;;;;6.35;5.30;;;;;;;;;;6308585;22;20006;-79
2023/09/03 16:03:31;;;;;;;5.85;5.30;;;;;;;;;;6308499;22;20003;-79
2023/09/03 16:05:57;;;;;;;5.88;5.38;;;;;;;;;;6308557;22;20377;-79
2023/09/03 16:08:22;;;;;;;6.75;5.38;;;;;;;;;;6308725;22;20086;-79
2023/09/03 16:10:49;;;;;;;6.55;5.05;;;;;;;;;;6308608;22;20007;-79
2023/09/03 16:13:15;;;;;;;5.22;4.53;;;;;;;;;;6308692;22;20046;-79
2023/09/03 16:15:44;;;;;;;5.97;5.47;;;;;;;;;;6308276;22;20407;-80
2023/09/03 16:18:13;;;;;;;6.95;5.35;;;;;;;;;;6308758;22;20010;-78
2023/09/03 16:20:39;;;;;;;5.60;5.00;;;;;;;;;;6308732;22;20003;-78
2023/09/03 16:23:06;;;;;;;5.85;4.55;;;;;;;;;;6308573;22;20077;-79
2023/09/03 16:25:31;;;;;;;5.68;5.18;;;;;;;;;;6308476;22;20426;-79
2023/09/03 16:27:57;;;;;;;4.93;4.10;;;;;;;;;;6307895;22;20010;-79
2023/09/03 16:30:23;;;;;;;6.72;4.47;;;;;;;;;;6307990;22;20057;-78
2023/09/03 16:32:48;;;;;;;4.85;4.45;;;;;;;;;;6308353;22;20003;-78
2023/09/03 16:35:14;;;;;;;6.10;4.63;;;;;;;;;;6308378;22;20415;-78
2023/09/03 16:37:39;;;;;;;5.88;4.88;;;;;;;;;;6308092;22;20003;-78
2023/09/03 16:40:05;;;;;;;6.75;4.97;;;;;;;;;;6308411;22;20003;-78
2023/09/03 16:42:31;;;;;;;4.75;4.35;;;;;;;;;;6308317;22;20323;-78
2023/09/03 16:44:58;;;;;;;7.28;4.63;;;;;;;;;;6308331;22;20010;-78
2023/09/03 16:47:27;;;;;;;5.05;4.65;;;;;;;;;;6307967;22;20450;-78
2023/09/03 16:49:53;;;;;;;4.88;4.47;;;;;;;;;;6308063;22;20009;-80
2023/09/03 16:52:19;;;;;;;7.10;4.60;;;;;;;;;;6308195;22;20003;-78
2023/09/03 16:54:45;;;;;;;4.55;3.95;;;;;;;;;;6308082;22;20011;-78
2023/09/03 16:57:10;;;;;;;5.25;3.63;;;;;;;;;;6306416;22;20338;-77
2023/09/03 16:59:37;;;;;;;4.93;3.85;;;;;;;;;;6308203;22;19999;-79
2023/09/03 17:02:03;;;;;;;4.05;3.70;;;;;;;;;;6255310;22;20090;-79
2023/09/03 17:04:29;;;;;;;5.32;3.92;;;;;;;;;;6308193;22;20080;-77
2023/09/03 17:06:55;;;;;;;4.47;3.78;;;;;;;;;;6308076;22;20074;-77
2023/09/03 17:09:21;;;;;;;6.60;3.80;;;;;;;;;;6280669;22;20014;-80
2023/09/03 17:11:46;;;;;;;4.40;3.33;;;;;;;;;;6307976;22;20035;-79
2023/09/03 17:14:13;;;;;;;7.53;6.05;;;;;;;;;;6308364;22;20007;-80
2023/09/03 17:16:39;;;;;;;4.63;3.88;;;;;;;;;;6280837;22;20068;-77
2023/09/03 17:19:04;;;;;;;6.03;3.47;;;;;;;;;;6308089;22;20090;-78
2023/09/03 17:21:30;;;;;;;4.18;3.25;;;;;;;;;;6306540;22;19999;-79
2023/09/03 17:23:55;;;;;;;5.07;4.07;;;;;;;;;;6308409;22;20077;-78
2023/09/03 17:26:21;;;;;;;5.45;3.40;;;;;;;;;;6308022;22;20000;-79
2023/09/03 17:28:46;;;;;;;4.10;3.80;;;;;;;;;;6308004;22;19999;-80
2023/09/03 17:31:12;;;;;;;4.35;3.17;;;;;;;;;;6307793;22;20149;-79
2023/09/03 17:33:37;;;;;;;5.60;3.72;;;;;;;;;;6308006;22;20003;-77
2023/09/03 17:36:03;;;;;;;3.65;3.35;;;;;;;;;;6280596;22;20007;-79
2023/09/03 17:38:28;;;;;;;3.88;3.50;;;;;;;;;;6308071;22;20096;-80
2023/09/03 17:40:59;;;;;;;6.13;3.58;;;;;;;;;;6307733;22;19999;-76
2023/09/03 17:43:25;;;;;;;4.07;3.40;;;;;;;;;;6308163;22;20000;-79
2023/09/03 17:45:50;;;;;;;4.30;3.78;;;;;;;;;;6307965;22;20007;-78
2023/09/03 17:48:16;;;;;;;3.55;3.22;;;;;;;;;;6308022;22;20078;-80
2023/09/03 17:50:41;;;;;;;3.53;3.22;;;;;;;;;;6307897;22;20007;-78
2023/09/03 17:53:07;;;;;;;3.70;3.40;;;;;;;;;;6307829;22;20007;-76
2023/09/03 17:55:32;;;;;;;4.85;3.50;;;;;;;;;;6280453;22;20422;-80
2023/09/03 17:57:58;;;;;;;3.38;2.85;;;;;;;;;;6308409;22;20003;-77
2023/09/03 18:00:24;;;;;;;3.42;3.13;;;;;;;;;;6307690;22;20045;-77
2023/09/03 18:02:49;;;;;;;2.97;2.67;;;;;;;;;;6307665;22;20014;-77
2023/09/03 18:05:16;;;;;;;3.92;3.00;;;;;;;;;;6307885;22;20074;-77
2023/09/03 18:07:42;;;;;;;3.95;3.30;;;;;;;;;;6307759;22;20003;-79
2023/09/03 18:10:08;;;;;;;3.40;3.03;;;;;;;;;;6308144;22;20430;-78
2023/09/03 18:12:33;;;;;;;4.05;3.10;;;;;;;;;;6307727;22;20437;-78
2023/09/03 18:14:59;;;;;;;4.32;3.22;;;;;;;;;;6308113;22;20070;-77
2023/09/03 18:17:24;;;;;;;3.28;2.92;;;;;;;;;;6280349;22;20057;-77
2023/09/03 18:19:50;;;;;;;3.28;2.80;;;;;;;;;;6308081;22;20007;-78
2023/09/03 18:22:16;;;;;;;4.07;3.67;;;;;;;;;;6307471;22;20010;-79
2023/09/03 18:24:42;;;;;;;4.10;3.70;;;;;;;;;;6307743;22;20003;-79
2023/09/03 18:27:07;;;;;;;3.47;3.17;;;;;;;;;;6307714;22;20014;-77
2023/09/03 18:29:32;;;;;;;4.40;3.63;;;;;;;;;;6307813;22;20049;-78
2023/09/03 18:31:58;;;;;;;3.47;3.17;;;;;;;;;;6307786;22;20375;-78
2023/09/03 18:34:23;;;;;;;5.25;3.47;;;;;;;;;;6307727;22;20407;-77
2023/09/03 18:36:49;;;;;;;4.15;3.17;;;;;;;;;;6307670;22;19999;-76
2023/09/03 18:39:14;;;;;;;4.53;3.88;;;;;;;;;;6307536;22;19999;-78
2023/09/03 18:41:40;;;;;;;4.78;3.75;;;;;;;;;;6308037;22;20008;-79
2023/09/03 18:44:06;;;;;;;5.05;4.00;;;;;;;;;;6307719;22;20366;-81
2023/09/03 18:46:32;;;;;;;4.60;3.55;;;;;;;;;;6280155;22;20339;-79
2023/09/03 18:48:57;;;;;;;4.60;4.10;;;;;;;;;;6307676;22;20021;-79
2023/09/03 18:51:23;;;;;;;5.85;4.05;;;;;;;;;;6307611;22;20426;-78
2023/09/03 18:53:48;;;;;;;6.05;4.05;;;;;;;;;;6307904;22;20010;-77
2023/09/03 18:56:13;;;;;;;5.75;3.00;;;;;;;;;;6282205;22;20007;-79
2023/09/03 18:58:39;;;;;;;4.75;3.30;;;;;;;;;;6309782;22;20524;-78
2023/09/03 19:01:05;;;;;;;6.30;3.10;;;;;;;;;;6309739;22;20359;-79
2023/09/03 19:03:30;;;;;;;4.65;3.55;;;;;;;;;;6309178;22;20074;-77
2023/09/03 19:05:57;;;;;;;3.75;3.40;;;;;;;;;;6309428;22;20411;-78
2023/09/03 19:08:22;;;;;;;4.03;3.40;;;;;;;;;;6309067;22;20330;-83
2023/09/03 19:10:55;;;;;;;4.45;3.85;;;;;;;;;;6309484;22;20003;-77
2023/09/03 19:13:21;;;;;;;4.50;4.10;;;;;;;;;;6309580;22;20335;-81
2023/09/03 19:15:47;;;;;;;3.90;3.58;;;;;;;;;;6309456;22;20003;-76
2023/09/03 19:18:12;;;;;;;3.65;3.35;;;;;;;;;;6309307;22;20003;-78
2023/09/03 19:20:38;;;;;;;4.53;3.80;;;;;;;;;;6309130;22;20007;-80
2023/09/03 19:23:05;;;;;;;3.95;3.60;;;;;;;;;;6308943;22;20012;-81
2023/09/03 19:25:40;;;;;;;3.92;3.17;;;;;;;;;;6309783;22;20042;-81
2023/09/03 19:28:07;;;;;;;4.03;3.40;;;;;;;;;;6309461;22;20078;-80
2023/09/03 19:30:32;;;;;;;4.47;3.50;;;;;;;;;;6309159;22;20484;-82
2023/09/03 19:32:58;;;;;;;4.63;3.50;;;;;;;;;;6309012;22;20011;-81
2023/09/03 19:35:23;;;;;;;3.97;3.60;;;;;;;;;;6309071;22;19999;-78
2023/09/03 19:37:48;;;;;;;4.40;4.00;;;;;;;;;;6309257;22;20017;-78
2023/09/03 19:40:15;;;;;;;5.32;3.90;;;;;;;;;;6309467;22;20331;-78
2023/09/03 19:42:42;;;;;;;4.18;3.50;;;;;;;;;;6308979;22;20007;-78
2023/09/03 19:45:09;;;;;;;7.50;3.75;;;;;;;;;;6309204;22;20445;-80
2023/09/03 19:47:36;;;;;;;5.03;3.60;;;;;;;;;;6309046;22;20029;-80
2023/09/03 19:50:01;;;;;;;3.97;3.50;;;;;;;;;;6308977;22;20030;-77
2023/09/03 19:52:27;;;;;;;4.70;3.58;;;;;;;;;;6308809;22;20007;-77
2023/09/03 19:54:52;;;;;;;5.18;4.03;;;;;;;;;;6309215;22;20057;-79
2023/09/03 19:57:18;;;;;;;5.13;3.88;;;;;;;;;;6308998;22;20030;-78
2023/09/03 19:59:43;;;;;;;4.93;4.30;;;;;;;;;;6308979;22;20033;-77
2023/09/03 20:02:09;;;;;;;4.75;4.18;;;;;;;;;;6308808;22;20010;-78
2023/09/03 20:04:35;;;;;;;4.30;3.90;;;;;;;;;;6281186;22;20014;-77
2023/09/03 20:07:01;;;;;;;4.13;3.72;;;;;;;;;;6308346;22;19999;-82
2023/09/03 20:09:27;;;;;;;4.57;4.13;;;;;;;;;;6309274;22;20006;-79
2023/09/03 20:11:52;;;;;;;4.63;4.15;;;;;;;;;;6308858;22;20105;-80
2023/09/03 20:14:18;;;;;;;4.40;4.00;;;;;;;;;;6308933;22;20023;-80
2023/09/03 20:16:43;;;;;;;4.90;4.40;;;;;;;;;;6308742;22;19999;-80
2023/09/03 20:19:08;;;;;;;6.38;4.25;;;;;;;;;;6308722;22;20037;-80
2023/09/03 20:21:34;;;;;;;4.40;3.92;;;;;;;;;;6308728;22;20081;-78
2023/09/03 20:24:02;;;;;;;4.40;3.97;;;;;;;;;;6308569;22;20003;-79
2023/09/03 20:26:29;;;;;;;5.18;4.18;;;;;;;;;;6309015;22;20020;-79
2023/09/03 20:28:54;;;;;;;5.53;4.60;;;;;;;;;;6308748;22;20010;-81
2023/09/03 20:31:20;;;;;;;5.20;4.70;;;;;;;;;;6308536;22;20007;-80
2023/09/03 20:33:45;;;;;;;5.40;4.28;;;;;;;;;;6308410;22;19999;-78
2023/09/03 20:36:11;;;;;;;4.93;4.53;;;;;;;;;;6281130;22;20026;-82
2023/09/03 20:38:36;;;;;;;4.95;3.72;;;;;;;;;;6308504;22;20002;-81
2023/09/03 20:41:03;;;;;;;4.93;4.43;;;;;;;;;;6308353;22;20009;-79
2023/09/03 20:43:29;;;;;;;4.90;4.50;;;;;;;;;;6308329;22;20377;-78
2023/09/03 20:45:58;;;;;;;4.47;4.07;;;;;;;;;;6308156;22;20070;-81
2023/09/03 20:48:23;;;;;;;5.45;4.30;;;;;;;;;;6308599;22;19999;-78
2023/09/03 20:50:49;;;;;;;6.35;5.43;;;;;;;;;;6308565;22;20410;-82
2023/09/03 20:53:14;;;;;;;5.13;4.63;;;;;;;;;;6308394;22;20053;-80
2023/09/03 20:55:51;;;;;;;5.40;4.60;;;;;;;;;;6308698;22;20006;-81
2023/09/03 20:58:18;;;;;;;5.45;4.05;;;;;;;;;;6280980;22;19995;-79
2023/09/03 21:00:43;;;;;;;5.22;4.72;;;;;;;;;;6308217;22;20003;-80
2023/09/03 21:03:08;;;;;;;5.72;4.60;;;;;;;;;;6308002;22;20007;-79
2023/09/03 21:05:34;;;;;;;4.70;4.18;;;;;;;;;;6308204;22;20007;-80
2023/09/03 21:08:00;;;;;;;4.80;4.40;;;;;;;;;;6307978;22;20000;-79
2023/09/03 21:10:25;;;;;;;5.03;4.28;;;;;;;;;;6280810;22;20327;-80
2023/09/03 21:12:52;;;;;;;5.30;4.80;;;;;;;;;;6308070;22;20010;-79
2023/09/03 21:15:18;;;;;;;5.53;5.03;;;;;;;;;;6308199;22;20010;-81
2023/09/03 21:17:43;;;;;;;4.65;4.20;;;;;;;;;;6307719;22;20060;-80
2023/09/03 21:20:10;;;;;;;6.00;4.50;;;;;;;;;;6308071;22;20082;-79
2023/09/03 21:22:39;;;;;;;5.75;4.88;;;;;;;;;;6308072;22;20011;-80
2023/09/03 21:25:05;;;;;;;6.75;5.15;;;;;;;;;;6308165;22;20075;-78
2023/09/03 21:27:30;;;;;;;8.35;5.57;;;;;;;;;;6307971;22;19991;-80
2023/09/03 21:29:56;;;;;;;5.45;4.95;;;;;;;;;;6308059;22;20006;-80
2023/09/03 21:32:22;;;;;;;7.30;4.55;;;;;;;;;;6308290;22;20002;-78
2023/09/03 21:34:50;;;;;;;5.70;4.32;;;;;;;;;;6308282;22;20327;-81
2023/09/03 21:37:16;;;;;;;4.35;3.95;;;;;;;;;;6308114;22;20007;-80
2023/09/03 21:39:41;;;;;;;5.82;4.10;;;;;;;;;;6307994;22;19999;-78
2023/09/03 21:42:07;;;;;;;4.65;4.25;;;;;;;;;;6308013;22;20003;-79
2023/09/03 21:44:32;;;;;;;4.55;4.15;;;;;;;;;;6307807;22;20033;-80